Time;durP1;ratioP1;P1;durP2;ratioP2;P2;SDS_P1;SDS_P2;PMS_P1;PMS_P2;Temp;Humidity;BMP_temperature;BMP_pressure;BME280_temperature;BME280_humidity;BME280_pressure;Samples;Min_cycle;Max_cycle;Signal;HPM_P1;HPM_P2
2022/02/13 00:00:18;;;;;;;12.98;5.75;;;;;;;;;;5032233;28;20599;-45
2022/02/13 00:02:45;;;;;;;14.88;5.75;;;;;;;;;;5031117;28;20123;-45
2022/02/13 00:05:12;;;;;;;12.52;5.95;;;;;;;;;;5031812;28;20022;-43
2022/02/13 00:07:38;;;;;;;17.05;5.60;;;;;;;;;;5031639;28;20030;-45
2022/02/13 00:10:05;;;;;;;13.57;6.35;;;;;;;;;;5031666;28;20038;-45
2022/02/13 00:12:31;;;;;;;15.48;5.80;;;;;;;;;;5032190;28;20109;-45
2022/02/13 00:14:57;;;;;;;16.58;5.57;;;;;;;;;;5031918;28;20071;-45
2022/02/13 00:17:23;;;;;;;11.10;5.50;;;;;;;;;;5031289;28;20446;-45
2022/02/13 00:19:51;;;;;;;15.32;5.00;;;;;;;;;;5030905;28;20140;-45
2022/02/13 00:22:17;;;;;;;14.45;5.57;;;;;;;;;;5031269;28;20043;-45
2022/02/13 00:24:43;;;;;;;12.15;5.05;;;;;;;;;;5031725;28;20065;-45
2022/02/13 00:27:09;;;;;;;13.95;5.45;;;;;;;;;;5031161;28;20061;-44
2022/02/13 00:29:36;;;;;;;15.85;5.68;;;;;;;;;;5031069;28;20390;-45
2022/02/13 00:32:02;;;;;;;12.85;5.78;;;;;;;;;;5031846;28;20128;-45
2022/02/13 00:34:28;;;;;;;12.75;5.32;;;;;;;;;;5020186;28;20117;-45
2022/02/13 00:36:54;;;;;;;10.05;5.30;;;;;;;;;;5031556;28;20569;-45
2022/02/13 00:39:20;;;;;;;13.73;4.82;;;;;;;;;;5030772;28;20052;-45
2022/02/13 00:41:46;;;;;;;10.05;4.82;;;;;;;;;;5031072;28;20444;-45
2022/02/13 00:44:12;;;;;;;11.93;5.22;;;;;;;;;;5031024;28;20033;-45
2022/02/13 00:46:38;;;;;;;10.93;5.05;;;;;;;;;;5030897;28;20451;-44
2022/02/13 00:49:04;;;;;;;12.60;5.72;;;;;;;;;;5030279;28;20029;-45
2022/02/13 00:51:31;;;;;;;8.90;4.70;;;;;;;;;;5031277;28;20068;-45
2022/02/13 00:53:58;;;;;;;12.23;4.95;;;;;;;;;;5029956;28;20018;-45
2022/02/13 00:56:25;;;;;;;9.85;4.68;;;;;;;;;;5031021;28;20713;-45
2022/02/13 00:58:51;;;;;;;8.90;4.30;;;;;;;;;;5030898;28;20579;-45
2022/02/13 01:01:18;;;;;;;14.25;5.30;;;;;;;;;;5030821;28;20555;-45
2022/02/13 01:03:45;;;;;;;12.55;4.20;;;;;;;;;;5030143;28;20117;-45
2022/02/13 01:06:11;;;;;;;10.77;4.95;;;;;;;;;;5030888;28;20021;-45
2022/02/13 01:08:37;;;;;;;11.55;5.00;;;;;;;;;;5030799;28;20136;-45
2022/02/13 01:11:03;;;;;;;11.52;4.35;;;;;;;;;;5030949;28;20075;-45
2022/02/13 01:13:29;;;;;;;10.88;4.90;;;;;;;;;;5030359;28;20108;-45
2022/02/13 01:15:55;;;;;;;8.63;3.83;;;;;;;;;;5030531;28;20097;-44
2022/02/13 01:18:21;;;;;;;9.68;4.60;;;;;;;;;;5030312;28;20108;-45
2022/02/13 01:20:47;;;;;;;8.05;3.58;;;;;;;;;;5029943;28;20109;-45
2022/02/13 01:23:14;;;;;;;11.68;4.28;;;;;;;;;;5030106;28;20306;-44
2022/02/13 01:25:40;;;;;;;10.60;4.53;;;;;;;;;;5030168;28;20087;-45
2022/02/13 01:28:06;;;;;;;10.65;4.15;;;;;;;;;;5029978;28;20045;-45
2022/02/13 01:30:32;;;;;;;10.75;4.43;;;;;;;;;;5029990;28;20056;-45
2022/02/13 01:32:59;;;;;;;10.90;4.75;;;;;;;;;;5020101;28;20522;-45
2022/02/13 01:35:25;;;;;;;7.47;3.83;;;;;;;;;;5020202;28;20109;-45
2022/02/13 01:37:51;;;;;;;11.40;4.13;;;;;;;;;;5030250;28;20104;-45
2022/02/13 01:40:17;;;;;;;7.95;3.65;;;;;;;;;;5029940;28;20112;-44
2022/02/13 01:42:43;;;;;;;10.60;4.13;;;;;;;;;;5030181;28;20043;-45
2022/02/13 01:45:10;;;;;;;8.55;3.08;;;;;;;;;;5029688;28;20025;-44
2022/02/13 01:47:37;;;;;;;8.57;4.10;;;;;;;;;;5029228;28;20017;-44
2022/02/13 01:50:04;;;;;;;9.43;3.78;;;;;;;;;;5029363;28;20102;-45
2022/02/13 01:52:30;;;;;;;9.30;3.72;;;;;;;;;;5029977;28;20076;-45
2022/02/13 01:54:58;;;;;;;8.88;4.50;;;;;;;;;;5028323;28;20472;-45
2022/02/13 01:57:26;;;;;;;10.80;3.70;;;;;;;;;;5029653;28;20487;-46
2022/02/13 01:59:52;;;;;;;8.38;4.18;;;;;;;;;;5030347;28;20043;-45
2022/02/13 02:02:18;;;;;;;6.80;3.15;;;;;;;;;;5029032;28;20140;-45
2022/02/13 02:04:44;;;;;;;11.20;3.45;;;;;;;;;;5030008;28;20109;-45
2022/02/13 02:07:11;;;;;;;10.38;4.38;;;;;;;;;;5028524;28;20125;-45
2022/02/13 02:09:37;;;;;;;8.93;3.22;;;;;;;;;;5028350;28;20112;-45
2022/02/13 02:12:03;;;;;;;9.27;4.30;;;;;;;;;;5029496;28;20365;-45
2022/02/13 02:14:29;;;;;;;11.10;3.25;;;;;;;;;;5029455;28;20049;-45
2022/02/13 02:16:56;;;;;;;9.00;3.63;;;;;;;;;;5029849;28;20472;-44
2022/02/13 02:19:22;;;;;;;6.80;3.72;;;;;;;;;;5029256;28;20116;-45
2022/02/13 02:21:48;;;;;;;6.78;2.90;;;;;;;;;;5029751;28;20426;-45
2022/02/13 02:24:15;;;;;;;9.40;3.35;;;;;;;;;;5029015;28;20091;-45
2022/02/13 02:26:41;;;;;;;8.30;4.10;;;;;;;;;;5028814;28;20063;-45
2022/02/13 02:29:08;;;;;;;8.05;3.92;;;;;;;;;;5028897;28;20687;-45
2022/02/13 02:31:34;;;;;;;8.18;3.80;;;;;;;;;;5016069;28;20483;-45
2022/02/13 02:34:00;;;;;;;8.80;4.07;;;;;;;;;;5029096;28;20949;-45
2022/02/13 02:36:26;;;;;;;11.32;3.70;;;;;;;;;;5029082;28;20543;-45
2022/02/13 02:38:52;;;;;;;8.55;3.22;;;;;;;;;;5029353;28;20495;-45
2022/02/13 02:41:19;;;;;;;8.75;3.22;;;;;;;;;;5029415;28;20492;-45
2022/02/13 02:43:47;;;;;;;7.35;2.88;;;;;;;;;;5028962;28;20024;-45
2022/02/13 02:46:13;;;;;;;9.10;3.55;;;;;;;;;;5029476;28;20029;-43
2022/02/13 02:48:40;;;;;;;7.43;3.30;;;;;;;;;;5027164;28;20105;-45
2022/02/13 02:51:06;;;;;;;7.10;2.95;;;;;;;;;;5009262;28;20041;-45
2022/02/13 02:53:35;;;;;;;7.85;2.92;;;;;;;;;;5023370;28;20025;-45
2022/02/13 02:56:01;;;;;;;6.75;3.10;;;;;;;;;;5027595;28;20033;-45
2022/02/13 02:58:27;;;;;;;7.15;3.15;;;;;;;;;;5021372;28;20144;-46
2022/02/13 03:00:53;;;;;;;7.90;3.30;;;;;;;;;;5029307;28;20458;-45
2022/02/13 03:03:20;;;;;;;8.35;3.47;;;;;;;;;;5028706;28;20103;-45
2022/02/13 03:05:48;;;;;;;6.45;3.17;;;;;;;;;;5028313;28;20045;-45
2022/02/13 03:08:14;;;;;;;9.85;3.70;;;;;;;;;;5028757;28;20510;-44
2022/02/13 03:10:40;;;;;;;9.10;3.53;;;;;;;;;;5027763;28;20080;-44
2022/02/13 03:13:06;;;;;;;7.95;3.28;;;;;;;;;;5014369;28;20551;-45
2022/02/13 03:15:33;;;;;;;7.47;3.53;;;;;;;;;;5028771;28;20056;-45
2022/02/13 03:17:59;;;;;;;6.88;3.28;;;;;;;;;;5030560;28;20159;-45
2022/02/13 03:20:25;;;;;;;6.22;2.97;;;;;;;;;;5031897;28;20065;-45
2022/02/13 03:22:51;;;;;;;7.70;2.75;;;;;;;;;;5032728;28;20554;-44
2022/02/13 03:25:17;;;;;;;6.22;2.67;;;;;;;;;;5032652;28;20101;-45
2022/02/13 03:27:43;;;;;;;7.15;3.38;;;;;;;;;;5032839;28;20591;-45
2022/02/13 03:30:09;;;;;;;7.03;3.22;;;;;;;;;;5032227;28;20041;-45
2022/02/13 03:32:35;;;;;;;7.47;2.90;;;;;;;;;;5032763;28;20040;-45
2022/02/13 03:35:01;;;;;;;5.72;2.30;;;;;;;;;;5030621;28;20801;-45
2022/02/13 03:37:28;;;;;;;6.05;2.63;;;;;;;;;;5032517;28;20492;-44
2022/02/13 03:39:53;;;;;;;6.22;2.72;;;;;;;;;;5032432;28;20100;-45
2022/02/13 03:42:20;;;;;;;6.07;2.78;;;;;;;;;;5032205;28;20112;-45
2022/02/13 03:44:47;;;;;;;7.65;3.13;;;;;;;;;;5032323;28;20100;-46
2022/02/13 03:47:13;;;;;;;6.15;2.85;;;;;;;;;;5032170;28;20030;-45
2022/02/13 03:49:39;;;;;;;6.25;2.72;;;;;;;;;;5031487;28;20428;-45
2022/02/13 03:52:06;;;;;;;5.75;2.70;;;;;;;;;;5032203;28;20369;-45
2022/02/13 03:54:32;;;;;;;6.68;2.95;;;;;;;;;;5032019;28;20036;-45
2022/02/13 03:56:58;;;;;;;7.78;2.90;;;;;;;;;;5032170;28;20068;-45
2022/02/13 03:59:24;;;;;;;6.97;3.15;;;;;;;;;;5031784;28;20079;-45
2022/02/13 04:01:50;;;;;;;5.65;2.60;;;;;;;;;;5032539;28;20029;-45
2022/02/13 04:04:16;;;;;;;6.35;3.47;;;;;;;;;;5021454;28;20057;-45
2022/02/13 04:06:42;;;;;;;7.75;3.15;;;;;;;;;;5032208;28;20033;-45
2022/02/13 04:09:08;;;;;;;7.65;3.03;;;;;;;;;;5032030;28;20056;-45
2022/02/13 04:11:34;;;;;;;5.32;2.63;;;;;;;;;;5031326;28;20033;-46
2022/02/13 04:14:00;;;;;;;6.03;2.92;;;;;;;;;;5032031;28;20033;-45
2022/02/13 04:16:26;;;;;;;6.10;2.42;;;;;;;;;;5031362;28;20108;-45
2022/02/13 04:18:52;;;;;;;6.18;2.65;;;;;;;;;;5030814;28;20499;-45
2022/02/13 04:21:20;;;;;;;7.30;2.70;;;;;;;;;;5030745;28;20800;-45
2022/02/13 04:23:46;;;;;;;5.57;2.30;;;;;;;;;;5030996;28;20033;-45
2022/02/13 04:26:12;;;;;;;7.72;3.05;;;;;;;;;;5030450;28;20120;-46
2022/02/13 04:28:39;;;;;;;6.97;2.60;;;;;;;;;;5030488;28;20760;-45
2022/02/13 04:31:05;;;;;;;4.75;2.45;;;;;;;;;;5029982;28;20111;-46
2022/02/13 04:33:31;;;;;;;7.35;2.67;;;;;;;;;;5030600;28;20021;-45
2022/02/13 04:35:57;;;;;;;5.07;2.10;;;;;;;;;;5030472;28;20056;-45
2022/02/13 04:38:23;;;;;;;5.82;2.63;;;;;;;;;;5030622;28;20108;-45
2022/02/13 04:40:49;;;;;;;5.43;2.50;;;;;;;;;;5025088;28;20033;-45
2022/02/13 04:43:15;;;;;;;5.80;2.33;;;;;;;;;;5029799;28;20021;-45
2022/02/13 04:45:41;;;;;;;6.78;3.33;;;;;;;;;;5029695;28;20033;-45
2022/02/13 04:48:07;;;;;;;5.10;2.28;;;;;;;;;;5029943;28;20057;-45
2022/02/13 04:50:33;;;;;;;5.20;2.35;;;;;;;;;;5029912;28;20067;-45
2022/02/13 04:52:59;;;;;;;5.72;2.50;;;;;;;;;;5028532;28;20638;-45
2022/02/13 04:55:26;;;;;;;5.45;2.72;;;;;;;;;;5026964;28;20510;-45
2022/02/13 04:57:52;;;;;;;6.05;2.47;;;;;;;;;;5025973;28;20025;-46
2022/02/13 05:00:19;;;;;;;5.13;2.65;;;;;;;;;;5029952;28;20076;-46
2022/02/13 05:02:45;;;;;;;4.65;2.00;;;;;;;;;;5030123;28;20165;-44
2022/02/13 05:05:11;;;;;;;5.20;2.40;;;;;;;;;;5028913;28;20057;-45
2022/02/13 05:07:37;;;;;;;5.32;2.13;;;;;;;;;;5029443;28;20037;-45
2022/02/13 05:10:04;;;;;;;6.15;2.65;;;;;;;;;;5029189;28;20041;-45
2022/02/13 05:12:30;;;;;;;8.23;2.95;;;;;;;;;;5029731;28;20156;-45
2022/02/13 05:14:56;;;;;;;7.05;2.67;;;;;;;;;;5029485;28;20095;-34
2022/02/13 05:17:23;;;;;;;10.68;3.00;;;;;;;;;;5029422;28;20385;-33
2022/02/13 05:19:49;;;;;;;11.15;3.17;;;;;;;;;;5029805;28;20036;-32
2022/02/13 05:22:15;;;;;;;5.88;2.42;;;;;;;;;;5029885;28;20017;-34
2022/02/13 05:24:41;;;;;;;5.97;2.47;;;;;;;;;;5029820;28;20033;-34
2022/02/13 05:27:08;;;;;;;5.10;2.50;;;;;;;;;;5029216;28;20723;-33
2022/02/13 05:29:35;;;;;;;6.68;2.35;;;;;;;;;;5029899;28;20431;-34
2022/02/13 05:32:03;;;;;;;7.95;2.70;;;;;;;;;;5028130;28;20037;-34
2022/02/13 05:34:30;;;;;;;12.23;2.70;;;;;;;;;;5029158;28;20021;-35
2022/02/13 05:36:56;;;;;;;8.10;3.17;;;;;;;;;;5029263;28;20041;-35
2022/02/13 05:39:26;;;;;;;8.52;2.67;;;;;;;;;;5029235;28;20056;-35
2022/02/13 05:45:19;;;;;;;11.85;3.63;;;;;;;;;;4986898;28;20088;-34
2022/02/13 05:47:52;;;;;;;6.53;1.98;;;;;;;;;;4986915;28;20142;-35
2022/02/13 05:50:18;;;;;;;6.55;2.67;;;;;;;;;;4986628;28;20038;-34
2022/02/13 05:52:44;;;;;;;5.85;2.15;;;;;;;;;;4987787;28;20041;-35
2022/02/13 05:55:10;;;;;;;7.03;2.45;;;;;;;;;;5009675;28;20037;-34
2022/02/13 05:57:41;;;;;;;9.43;3.78;;;;;;;;;;5029252;28;20026;-34
2022/02/13 06:00:07;;;;;;;6.07;2.42;;;;;;;;;;5026110;28;20030;-35
2022/02/13 06:02:33;;;;;;;9.05;2.60;;;;;;;;;;5015833;28;20427;-35
2022/02/13 06:05:00;;;;;;;6.80;2.70;;;;;;;;;;5024018;28;20497;-35
2022/02/13 06:07:26;;;;;;;7.70;2.17;;;;;;;;;;5029223;28;20115;-35
2022/02/13 06:09:52;;;;;;;11.38;2.90;;;;;;;;;;5029025;28;20517;-35
2022/02/13 06:12:18;;;;;;;5.78;2.58;;;;;;;;;;5028778;28;20455;-34
2022/02/13 06:14:46;;;;;;;8.90;1.98;;;;;;;;;;5028391;28;20049;-34
2022/02/13 06:17:12;;;;;;;9.85;2.83;;;;;;;;;;5028119;28;20384;-34
2022/02/13 06:19:38;;;;;;;8.57;2.65;;;;;;;;;;5017753;28;20144;-34
2022/02/13 06:22:04;;;;;;;6.45;2.47;;;;;;;;;;5028459;28;20029;-33
2022/02/13 06:24:30;;;;;;;7.22;2.10;;;;;;;;;;5028502;28;20060;-33
2022/02/13 06:26:56;;;;;;;6.60;2.83;;;;;;;;;;5028268;28;20080;-34
2022/02/13 06:29:22;;;;;;;5.15;2.28;;;;;;;;;;5027688;28;20033;-33
2022/02/13 06:31:48;;;;;;;6.65;2.67;;;;;;;;;;5028395;28;20018;-34
2022/02/13 06:34:15;;;;;;;6.82;2.40;;;;;;;;;;5011024;28;20589;-34
2022/02/13 06:36:43;;;;;;;8.30;2.50;;;;;;;;;;5028315;28;20021;-33
2022/02/13 06:39:09;;;;;;;5.20;1.98;;;;;;;;;;5028592;28;20056;-34
2022/02/13 06:41:35;;;;;;;6.32;2.90;;;;;;;;;;5025437;28;20033;-34
2022/02/13 06:44:01;;;;;;;5.13;2.13;;;;;;;;;;5028462;28;20025;-34
2022/02/13 06:46:29;;;;;;;6.13;2.30;;;;;;;;;;5028244;28;20029;-33
2022/02/13 06:48:55;;;;;;;7.70;2.13;;;;;;;;;;5028297;28;20108;-35
2022/02/13 06:51:21;;;;;;;7.95;2.10;;;;;;;;;;5028416;28;20112;-34
2022/02/13 06:53:47;;;;;;;7.85;2.38;;;;;;;;;;5027956;28;20034;-35
2022/02/13 06:56:13;;;;;;;6.85;1.67;;;;;;;;;;5028295;28;20032;-33
2022/02/13 06:58:41;;;;;;;8.00;2.10;;;;;;;;;;5028799;28;20135;-33
2022/02/13 07:01:09;;;;;;;4.88;2.17;;;;;;;;;;5028521;28;20065;-33
2022/02/13 07:03:35;;;;;;;6.40;2.35;;;;;;;;;;5028602;28;20056;-36
2022/02/13 07:06:02;;;;;;;6.72;2.22;;;;;;;;;;5029220;28;20116;-34
2022/02/13 07:08:29;;;;;;;5.50;2.08;;;;;;;;;;5029249;28;20045;-35
2022/02/13 07:10:55;;;;;;;5.15;1.90;;;;;;;;;;5028765;28;20460;-34
2022/02/13 07:13:21;;;;;;;3.78;1.67;;;;;;;;;;5029194;28;20029;-35
2022/02/13 07:15:47;;;;;;;5.90;2.00;;;;;;;;;;5028662;28;20112;-34
2022/02/13 07:18:13;;;;;;;5.68;1.98;;;;;;;;;;5027615;28;20113;-34
2022/02/13 07:20:40;;;;;;;5.45;1.58;;;;;;;;;;5028330;28;20395;-35
2022/02/13 07:23:06;;;;;;;4.20;1.58;;;;;;;;;;5028703;28;20143;-34
2022/02/13 07:25:32;;;;;;;8.52;2.22;;;;;;;;;;5028889;28;20489;-34
2022/02/13 07:27:58;;;;;;;4.70;1.77;;;;;;;;;;5028269;28;21006;-34
2022/02/13 07:30:24;;;;;;;9.38;2.05;;;;;;;;;;5027881;28;20037;-34
2022/02/13 07:32:50;;;;;;;6.30;2.60;;;;;;;;;;5027480;28;20432;-34
2022/02/13 07:35:16;;;;;;;6.25;2.50;;;;;;;;;;5028193;28;20022;-34
2022/02/13 07:37:43;;;;;;;5.75;1.85;;;;;;;;;;5028333;28;20041;-34
2022/02/13 07:40:09;;;;;;;6.32;2.08;;;;;;;;;;5028201;28;20091;-33
2022/02/13 07:42:35;;;;;;;5.03;1.85;;;;;;;;;;5028174;28;20029;-34
2022/02/13 07:45:01;;;;;;;6.40;2.33;;;;;;;;;;5028316;28;21062;-34
2022/02/13 07:47:28;;;;;;;8.57;2.17;;;;;;;;;;5024635;28;20080;-34
2022/02/13 07:49:54;;;;;;;6.13;2.15;;;;;;;;;;5028498;28;20463;-35
2022/02/13 07:52:20;;;;;;;6.53;2.45;;;;;;;;;;5028435;28;20032;-35
2022/02/13 07:54:46;;;;;;;7.07;2.55;;;;;;;;;;5028269;28;20025;-34
2022/02/13 07:57:12;;;;;;;5.72;2.10;;;;;;;;;;5028424;28;20525;-35
2022/02/13 07:59:42;;;;;;;5.53;2.00;;;;;;;;;;5028474;28;20080;-35
2022/02/13 08:02:08;;;;;;;4.78;2.00;;;;;;;;;;5024680;28;20084;-35
2022/02/13 08:04:36;;;;;;;6.82;1.77;;;;;;;;;;5028233;28;20391;-33
2022/02/13 08:07:02;;;;;;;6.45;2.00;;;;;;;;;;5031425;28;20033;-34
2022/02/13 08:09:28;;;;;;;5.88;2.20;;;;;;;;;;5030818;28;20537;-34
2022/02/13 08:11:54;;;;;;;5.80;1.90;;;;;;;;;;5031831;28;20029;-34
2022/02/13 08:14:20;;;;;;;5.30;2.08;;;;;;;;;;5030532;28;20033;-34
2022/02/13 08:16:46;;;;;;;5.80;1.73;;;;;;;;;;5031047;28;20566;-34
2022/02/13 08:19:12;;;;;;;5.82;1.70;;;;;;;;;;5030190;28;20487;-34
2022/02/13 08:21:38;;;;;;;4.93;2.05;;;;;;;;;;5031140;28;20045;-34
2022/02/13 08:24:04;;;;;;;4.70;1.50;;;;;;;;;;5030573;28;20483;-32
2022/02/13 08:26:31;;;;;;;6.07;1.70;;;;;;;;;;5029385;28;20104;-33
2022/02/13 08:28:57;;;;;;;6.85;1.63;;;;;;;;;;5028922;28;20581;-33
2022/02/13 08:31:23;;;;;;;5.68;1.80;;;;;;;;;;5029614;28;20445;-33
2022/02/13 08:33:49;;;;;;;8.27;2.22;;;;;;;;;;5027312;28;20567;-33
2022/02/13 08:36:21;;;;;;;6.43;2.08;;;;;;;;;;5028487;28;20083;-34
2022/02/13 08:38:47;;;;;;;5.90;2.20;;;;;;;;;;5027886;28;20056;-33
2022/02/13 08:41:13;;;;;;;9.50;2.47;;;;;;;;;;5028991;28;20033;-33
2022/02/13 08:43:40;;;;;;;5.15;2.22;;;;;;;;;;5029355;28;20076;-33
2022/02/13 08:46:06;;;;;;;10.75;2.75;;;;;;;;;;5028882;28;20029;-33
2022/02/13 08:48:32;;;;;;;8.30;2.42;;;;;;;;;;5030381;28;20045;-33
2022/02/13 08:50:58;;;;;;;11.10;2.67;;;;;;;;;;5028752;28;20087;-33
2022/02/13 08:53:25;;;;;;;8.63;2.35;;;;;;;;;;5029354;28;20021;-33
2022/02/13 08:55:51;;;;;;;7.75;2.50;;;;;;;;;;5028951;28;20097;-33
2022/02/13 08:58:18;;;;;;;7.78;2.50;;;;;;;;;;5029226;28;20060;-33
2022/02/13 09:00:44;;;;;;;7.55;2.38;;;;;;;;;;5028662;28;20135;-33
2022/02/13 09:03:10;;;;;;;7.53;2.25;;;;;;;;;;5029194;28;20064;-33
2022/02/13 09:05:36;;;;;;;5.55;2.05;;;;;;;;;;5029046;28;20029;-33
2022/02/13 09:08:02;;;;;;;9.00;2.08;;;;;;;;;;5028789;28;20071;-33
2022/02/13 09:10:28;;;;;;;7.93;2.40;;;;;;;;;;5027204;28;20120;-33
2022/02/13 09:12:55;;;;;;;8.05;2.10;;;;;;;;;;5029081;28;20109;-33
2022/02/13 09:15:21;;;;;;;6.78;1.95;;;;;;;;;;5027903;28;20097;-33
2022/02/13 09:17:47;;;;;;;5.78;2.35;;;;;;;;;;5028464;28;20029;-32
2022/02/13 09:20:13;;;;;;;6.60;2.20;;;;;;;;;;5028528;28;20033;-33
2022/02/13 09:22:39;;;;;;;3.25;1.83;;;;;;;;;;5028752;28;20017;-33
2022/02/13 09:25:05;;;;;;;9.48;2.13;;;;;;;;;;5028418;28;20030;-33
2022/02/13 09:27:31;;;;;;;7.25;1.63;;;;;;;;;;5029073;28;20095;-32
2022/02/13 09:29:57;;;;;;;13.00;2.92;;;;;;;;;;5023600;28;20432;-32
2022/02/13 09:32:23;;;;;;;6.93;2.03;;;;;;;;;;5028484;28;20038;-32
2022/02/13 09:34:50;;;;;;;7.82;1.98;;;;;;;;;;5027714;28;20387;-33
2022/02/13 09:37:16;;;;;;;6.55;1.90;;;;;;;;;;5027714;28;20029;-33
2022/02/13 09:39:42;;;;;;;7.80;2.80;;;;;;;;;;5028269;28;20422;-33
2022/02/13 09:42:09;;;;;;;8.38;2.28;;;;;;;;;;5027037;28;20034;-33
2022/02/13 09:44:35;;;;;;;5.70;2.05;;;;;;;;;;5028324;28;20030;-33
2022/02/13 09:47:01;;;;;;;11.68;2.47;;;;;;;;;;5028641;28;20042;-32
2022/02/13 09:49:27;;;;;;;8.13;2.78;;;;;;;;;;5028784;28;20068;-32
2022/02/13 09:51:54;;;;;;;13.10;2.72;;;;;;;;;;5028752;28;20125;-33
2022/02/13 09:54:20;;;;;;;13.80;2.72;;;;;;;;;;5029306;28;20590;-33
2022/02/13 09:56:49;;;;;;;9.13;2.20;;;;;;;;;;5028643;28;20036;-33
2022/02/13 09:59:15;;;;;;;7.32;2.20;;;;;;;;;;5029195;28;20554;-33
2022/02/13 10:01:42;;;;;;;12.80;2.78;;;;;;;;;;5028928;28;20101;-33
2022/02/13 10:04:12;;;;;;;9.50;2.60;;;;;;;;;;5022768;28;20022;-32
2022/02/13 10:06:39;;;;;;;10.20;1.97;;;;;;;;;;5011429;28;20048;-33
2022/02/13 10:09:06;;;;;;;6.55;2.13;;;;;;;;;;5028354;28;20302;-32
2022/02/13 10:11:33;;;;;;;12.32;2.65;;;;;;;;;;5028303;28;20482;-33
2022/02/13 10:14:15;;;;;;;9.57;3.15;;;;;;;;;;5028021;28;20527;-33
2022/02/13 10:16:41;;;;;;;8.38;2.75;;;;;;;;;;5026767;28;20156;-34
2022/02/13 10:19:08;;;;;;;9.52;2.33;;;;;;;;;;5028026;28;20108;-34
2022/02/13 10:21:39;;;;;;;7.45;2.40;;;;;;;;;;5027950;28;20033;-34
2022/02/13 10:24:15;;;;;;;7.82;3.10;;;;;;;;;;5019214;28;20040;-32
2022/02/13 10:26:42;;;;;;;31.83;3.20;;;;;;;;;;5023403;28;20160;-33
2022/02/13 10:29:09;;;;;;;6.53;2.22;;;;;;;;;;5026615;28;20108;-34
2022/02/13 10:31:35;;;;;;;5.88;1.90;;;;;;;;;;5026260;28;20608;-34
2022/02/13 10:34:01;;;;;;;6.15;1.73;;;;;;;;;;5024852;28;20072;-33
2022/02/13 10:36:28;;;;;;;7.13;2.55;;;;;;;;;;5026994;28;20498;-34
2022/02/13 10:38:54;;;;;;;8.95;2.40;;;;;;;;;;5026703;28;20523;-33
2022/02/13 10:41:22;;;;;;;9.32;2.42;;;;;;;;;;5022214;28;20042;-33
2022/02/13 10:43:56;;;;;;;7.57;1.73;;;;;;;;;;5026538;28;20021;-33
2022/02/13 10:46:23;;;;;;;8.02;2.50;;;;;;;;;;5021986;28;20037;-35
2022/02/13 10:48:49;;;;;;;6.57;2.33;;;;;;;;;;5026600;28;20104;-34
2022/02/13 10:51:15;;;;;;;6.60;2.13;;;;;;;;;;5027401;28;20133;-34
2022/02/13 10:53:41;;;;;;;9.05;2.25;;;;;;;;;;5027641;28;20034;-34
2022/02/13 10:56:08;;;;;;;5.68;1.88;;;;;;;;;;5023118;28;20018;-34
2022/02/13 10:58:34;;;;;;;7.28;2.03;;;;;;;;;;5027772;28;20021;-35
2022/02/13 11:01:01;;;;;;;7.32;1.98;;;;;;;;;;5024977;28;20507;-34
2022/02/13 11:03:32;;;;;;;5.32;1.92;;;;;;;;;;5026441;28;20025;-34
2022/02/13 11:06:00;;;;;;;8.60;2.55;;;;;;;;;;5025364;28;20025;-34
2022/02/13 11:08:28;;;;;;;5.90;2.08;;;;;;;;;;5024281;28;20108;-33
2022/02/13 11:10:57;;;;;;;6.03;2.38;;;;;;;;;;5027404;28;20048;-34
2022/02/13 11:13:27;;;;;;;8.07;2.22;;;;;;;;;;5028127;28;20483;-33
2022/02/13 11:15:53;;;;;;;8.85;2.45;;;;;;;;;;5027658;28;20026;-34
2022/02/13 11:18:26;;;;;;;7.85;1.73;;;;;;;;;;5027762;28;20155;-34
2022/02/13 11:20:54;;;;;;;7.28;2.30;;;;;;;;;;5027886;28;20129;-34
2022/02/13 11:23:25;;;;;;;7.38;2.13;;;;;;;;;;5010392;28;20084;-33
2022/02/13 11:25:57;;;;;;;5.50;2.05;;;;;;;;;;5024167;28;20033;-34
2022/02/13 11:28:25;;;;;;;9.10;2.17;;;;;;;;;;5023051;28;20053;-33
2022/02/13 11:30:56;;;;;;;11.45;2.25;;;;;;;;;;5027064;28;20041;-35
2022/02/13 11:33:40;;;;;;;10.18;2.58;;;;;;;;;;5024935;28;20064;-34
2022/02/13 11:36:07;;;;;;;5.60;1.58;;;;;;;;;;5025925;28;20021;-33
2022/02/13 11:38:48;;;;;;;6.60;1.73;;;;;;;;;;5027528;28;20033;-33
2022/02/13 11:41:16;;;;;;;5.05;2.30;;;;;;;;;;5029927;28;20025;-33
2022/02/13 11:43:45;;;;;;;9.07;2.05;;;;;;;;;;5030138;28;20029;-33
2022/02/13 11:46:11;;;;;;;8.32;2.60;;;;;;;;;;5030361;28;20087;-33
2022/02/13 11:48:40;;;;;;;7.40;3.30;;;;;;;;;;5029892;28;20112;-33
2022/02/13 11:51:07;;;;;;;8.68;3.67;;;;;;;;;;5029010;28;20459;-33
2022/02/13 11:53:35;;;;;;;9.10;4.05;;;;;;;;;;5028294;28;20033;-33
2022/02/13 11:56:30;;;;;;;9.48;3.55;;;;;;;;;;5030393;28;20096;-33
2022/02/13 11:58:57;;;;;;;12.05;3.88;;;;;;;;;;5018430;28;20475;-33
2022/02/13 12:01:35;;;;;;;9.13;3.53;;;;;;;;;;5030866;28;20545;-32
2022/02/13 12:04:02;;;;;;;9.18;4.10;;;;;;;;;;5030976;28;20040;-34
2022/02/13 12:06:29;;;;;;;7.65;4.03;;;;;;;;;;5029990;28;20537;-33
2022/02/13 12:09:04;;;;;;;11.02;4.30;;;;;;;;;;5031051;28;20033;-32
2022/02/13 12:11:31;;;;;;;8.73;4.28;;;;;;;;;;5031052;28;20084;-33
2022/02/13 12:13:58;;;;;;;13.13;4.78;;;;;;;;;;5031131;28;20112;-33
2022/02/13 12:16:26;;;;;;;10.00;3.80;;;;;;;;;;5030791;28;20068;-32
2022/02/13 12:18:53;;;;;;;12.07;4.47;;;;;;;;;;5030858;28;20021;-33
2022/02/13 12:21:25;;;;;;;9.30;3.97;;;;;;;;;;5030217;28;20569;-33
2022/02/13 12:23:59;;;;;;;6.85;3.42;;;;;;;;;;5030431;28;20108;-32
2022/02/13 12:26:28;;;;;;;8.40;3.75;;;;;;;;;;5030615;28;20029;-33
2022/02/13 12:28:54;;;;;;;8.57;3.50;;;;;;;;;;5030776;28;20560;-33
2022/02/13 12:31:23;;;;;;;11.15;4.05;;;;;;;;;;5030015;28;20038;-33
2022/02/13 12:33:51;;;;;;;11.43;3.65;;;;;;;;;;5030701;28;20036;-33
2022/02/13 12:36:24;;;;;;;9.73;4.00;;;;;;;;;;5029175;28;20033;-33
2022/02/13 12:38:55;;;;;;;6.15;3.67;;;;;;;;;;5030064;28;20033;-35
2022/02/13 12:41:22;;;;;;;7.78;3.50;;;;;;;;;;5030099;28;20025;-35
2022/02/13 12:43:50;;;;;;;9.45;4.38;;;;;;;;;;5030008;28;20026;-34
2022/02/13 12:46:16;;;;;;;11.68;4.07;;;;;;;;;;5030422;28;20053;-34
2022/02/13 12:48:43;;;;;;;8.85;3.63;;;;;;;;;;5030309;28;20053;-34
2022/02/13 12:51:10;;;;;;;9.52;3.42;;;;;;;;;;5027714;28;20124;-35
2022/02/13 12:53:37;;;;;;;11.32;3.28;;;;;;;;;;5025138;28;20108;-34
2022/02/13 12:56:05;;;;;;;8.05;3.72;;;;;;;;;;5030138;28;20392;-35
2022/02/13 12:58:32;;;;;;;6.50;3.17;;;;;;;;;;5027294;28;20030;-34
2022/02/13 13:00:59;;;;;;;10.10;3.80;;;;;;;;;;5026727;28;20514;-34
2022/02/13 13:03:29;;;;;;;8.30;3.80;;;;;;;;;;5030312;28;20037;-34
2022/02/13 13:05:56;;;;;;;6.93;3.25;;;;;;;;;;5030367;28;20033;-34
2022/02/13 13:08:23;;;;;;;8.48;3.92;;;;;;;;;;5027364;28;20549;-35
2022/02/13 13:11:03;;;;;;;10.02;3.70;;;;;;;;;;5028858;28;20175;-34
2022/02/13 13:13:29;;;;;;;7.97;3.63;;;;;;;;;;5030129;28;20039;-35
2022/02/13 13:16:06;;;;;;;6.20;3.33;;;;;;;;;;5030335;28;20041;-35
2022/02/13 13:18:52;;;;;;;7.70;3.15;;;;;;;;;;5029322;28;20099;-35
2022/02/13 13:21:26;;;;;;;8.40;3.45;;;;;;;;;;5023736;28;20036;-34
2022/02/13 13:24:03;;;;;;;6.75;3.70;;;;;;;;;;5029131;28;20025;-35
2022/02/13 13:26:31;;;;;;;11.23;4.30;;;;;;;;;;5029785;28;20033;-34
2022/02/13 13:28:57;;;;;;;8.00;3.40;;;;;;;;;;5029194;28;20032;-35
2022/02/13 13:31:23;;;;;;;6.35;3.25;;;;;;;;;;5030239;28;20301;-35
2022/02/13 13:33:49;;;;;;;7.90;3.33;;;;;;;;;;5026541;28;20034;-35
2022/02/13 13:36:28;;;;;;;7.57;3.35;;;;;;;;;;5023522;28;20051;-35
2022/02/13 13:38:54;;;;;;;7.88;3.35;;;;;;;;;;5027807;28;20029;-34
2022/02/13 13:41:30;;;;;;;7.05;3.67;;;;;;;;;;5029573;28;20021;-34
2022/02/13 13:43:56;;;;;;;8.80;3.33;;;;;;;;;;5028788;28;20021;-35
2022/02/13 13:46:26;;;;;;;8.10;3.60;;;;;;;;;;5029289;28;20044;-35
2022/02/13 13:48:52;;;;;;;10.25;4.57;;;;;;;;;;5026453;28;20403;-34
2022/02/13 13:51:19;;;;;;;13.48;7.82;;;;;;;;;;5025567;28;20792;-36
2022/02/13 13:53:45;;;;;;;12.90;7.38;;;;;;;;;;5029226;28;20629;-35
2022/02/13 13:56:11;;;;;;;11.52;6.35;;;;;;;;;;5027579;28;20030;-35
2022/02/13 13:58:37;;;;;;;10.45;4.95;;;;;;;;;;5029709;28;20036;-35
2022/02/13 14:01:03;;;;;;;9.77;4.63;;;;;;;;;;5027849;28;20929;-34
2022/02/13 14:03:29;;;;;;;10.05;5.40;;;;;;;;;;5028022;28;20490;-34
2022/02/13 14:05:55;;;;;;;9.65;4.80;;;;;;;;;;5023206;28;20116;-34
2022/02/13 14:08:21;;;;;;;10.15;4.32;;;;;;;;;;5027917;28;20057;-34
2022/02/13 14:10:47;;;;;;;7.80;4.43;;;;;;;;;;5028371;28;20459;-34
2022/02/13 14:13:13;;;;;;;8.32;4.20;;;;;;;;;;5028645;28;20514;-34
2022/02/13 14:15:41;;;;;;;8.10;3.83;;;;;;;;;;5026999;28;20033;-33
2022/02/13 14:18:07;;;;;;;7.60;3.70;;;;;;;;;;5028471;28;20053;-34
2022/02/13 14:20:33;;;;;;;9.30;4.15;;;;;;;;;;5019836;28;20555;-36
2022/02/13 14:22:59;;;;;;;8.13;3.65;;;;;;;;;;5028255;28;20037;-33
2022/02/13 14:25:26;;;;;;;8.50;3.72;;;;;;;;;;5027489;28;20057;-34
2022/02/13 14:27:53;;;;;;;8.68;3.00;;;;;;;;;;5027424;28;20079;-33
2022/02/13 14:30:19;;;;;;;10.18;3.78;;;;;;;;;;5027955;28;20870;-33
2022/02/13 14:32:46;;;;;;;9.45;3.08;;;;;;;;;;5026805;28;20060;-34
2022/02/13 14:35:13;;;;;;;9.50;3.50;;;;;;;;;;5027835;28;20091;-33
2022/02/13 14:37:40;;;;;;;8.95;3.28;;;;;;;;;;5027770;28;20511;-33
2022/02/13 14:40:06;;;;;;;13.27;3.67;;;;;;;;;;5026868;28;20034;-34
2022/02/13 14:42:34;;;;;;;7.65;3.47;;;;;;;;;;5027433;28;20483;-34